createdAt,value
2023-02-14T00:00:02.558Z,103002.91
2023-02-14T00:02:36.245Z,102995.13
2023-02-14T00:05:03.940Z,102999.50
2023-02-14T00:07:32.346Z,103001.44
2023-02-14T00:10:00.000Z,102999.69
2023-02-14T00:12:29.106Z,103002.31
2023-02-14T00:15:14.288Z,103008.47
2023-02-14T00:17:41.882Z,102999.78
2023-02-14T00:20:10.153Z,102998.97
2023-02-14T00:22:37.731Z,102995.53
2023-02-14T00:25:05.813Z,102999.06
2023-02-14T00:27:34.754Z,102991.28
2023-02-14T00:30:03.344Z,102984.28
2023-02-14T00:32:31.567Z,102994.91
2023-02-14T00:34:59.242Z,102995.84
2023-02-14T00:37:27.027Z,102994.09
2023-02-14T00:39:54.987Z,102985.31
2023-02-14T00:42:22.605Z,102990.69
2023-02-14T00:44:51.606Z,102980.16
2023-02-14T00:47:20.981Z,102974.91
2023-02-14T00:49:48.749Z,102982.84
2023-02-14T00:52:16.539Z,102978.44
2023-02-14T00:54:44.178Z,102984.59
2023-02-14T00:57:11.817Z,102996.63
2023-02-14T00:59:39.435Z,102992.19
2023-02-14T01:02:08.431Z,102993.00
2023-02-14T01:04:36.264Z,102990.19
2023-02-14T01:07:03.908Z,102992.72
2023-02-14T01:09:31.782Z,102991.91
2023-02-14T01:12:02.884Z,102989.28
2023-02-14T01:14:30.583Z,102986.47
2023-02-14T01:16:58.182Z,102991.50
2023-02-14T01:19:27.207Z,102985.25
2023-02-14T01:21:54.798Z,102992.84
2023-02-14T01:24:25.116Z,102987.50
2023-02-14T01:26:52.762Z,102986.38
2023-02-14T01:29:20.439Z,102976.63
2023-02-14T01:31:48.970Z,102982.66
2023-02-14T01:34:16.620Z,102980.94
2023-02-14T01:36:46.607Z,102980.94
2023-02-14T01:39:15.876Z,102980.13
2023-02-14T01:41:48.922Z,102977.41
2023-02-14T01:44:58.237Z,102976.50
2023-02-14T01:47:28.143Z,102981.88
2023-02-14T01:50:00.600Z,102978.31
2023-02-14T01:52:34.234Z,102982.78
2023-02-14T01:55:05.862Z,102977.41
2023-02-14T01:57:38.015Z,102973.16
2023-02-14T02:00:26.359Z,102972.25
2023-02-14T02:02:54.474Z,102969.63
2023-02-14T02:05:23.866Z,102967.91
2023-02-14T02:07:56.225Z,102968.84
2023-02-14T02:10:24.257Z,102960.94
2023-02-14T02:12:53.449Z,102957.41
2023-02-14T02:15:25.061Z,102962.66
2023-02-14T02:18:03.145Z,102961.75
2023-02-14T02:20:55.969Z,102965.19
2023-02-14T02:23:54.050Z,102955.50
2023-02-14T02:27:08.828Z,102957.13
2023-02-14T02:30:16.192Z,102957.94
2023-02-14T02:33:15.435Z,102942.06
2023-02-14T02:35:55.434Z,102942.69
2023-02-14T02:38:38.051Z,102945.13
2023-02-14T02:41:17.005Z,102946.03
2023-02-14T02:43:53.848Z,102951.06
2023-02-14T02:46:43.076Z,102943.03
2023-02-14T02:49:38.369Z,102934.13
2023-02-14T02:52:30.414Z,102946.34
2023-02-14T02:55:05.530Z,102933.22
2023-02-14T02:57:37.694Z,102946.25
2023-02-14T03:00:08.625Z,102943.53
2023-02-14T03:02:54.704Z,102945.16
2023-02-14T03:05:23.304Z,102939.78
2023-02-14T03:07:53.688Z,102938.06
2023-02-14T03:10:23.771Z,102936.16
2023-02-14T03:13:18.030Z,102941.44
2023-02-14T03:16:36.525Z,102938.59
2023-02-14T03:19:36.209Z,102941.94
2023-02-14T03:22:09.584Z,102944.47
2023-02-14T03:24:47.733Z,102945.28
2023-02-14T03:27:21.318Z,102946.16
2023-02-14T03:29:58.871Z,102941.84
2023-02-14T03:32:35.424Z,102944.47
2023-02-14T03:35:11.789Z,102929.63
2023-02-14T03:37:47.938Z,102936.59
2023-02-14T03:40:21.885Z,102936.59
2023-02-14T03:42:54.314Z,102933.03
2023-02-14T03:45:28.780Z,102931.34
2023-02-14T03:48:00.246Z,102926.91
2023-02-14T03:50:29.504Z,102935.59
2023-02-14T03:53:00.329Z,102940.84
2023-02-14T03:55:37.086Z,102930.16
2023-02-14T03:58:10.592Z,102934.28
2023-02-14T04:00:42.063Z,102935.88
2023-02-14T04:03:12.830Z,102935.81
2023-02-14T04:05:44.437Z,102938.34
2023-02-14T04:08:12.507Z,102934.69
2023-02-14T04:10:43.234Z,102941.56
2023-02-14T04:13:11.002Z,102940.44
2023-02-14T04:15:38.624Z,102942.06
2023-02-14T04:18:23.792Z,102942.88
2023-02-14T04:20:51.413Z,102940.88
2023-02-14T04:23:19.052Z,102938.03
2023-02-14T04:25:48.215Z,102936.03
2023-02-14T04:28:15.886Z,102936.81
2023-02-14T04:30:43.592Z,102938.44
2023-02-14T04:33:11.602Z,102934.81
2023-02-14T04:35:39.231Z,102923.28
2023-02-14T04:38:07.387Z,102926.63
2023-02-14T04:40:35.044Z,102925.63
2023-02-14T04:43:04.672Z,102926.22
2023-02-14T04:45:32.270Z,102918.06
2023-02-14T04:48:02.319Z,102916.97
2023-02-14T04:50:29.901Z,102911.41
2023-02-14T04:52:57.665Z,102912.00
2023-02-14T04:55:25.414Z,102916.13
2023-02-14T04:57:53.381Z,102915.00
2023-02-14T05:00:22.783Z,102913.69
2023-02-14T05:02:50.564Z,102913.41
2023-02-14T05:05:18.214Z,102909.56
2023-02-14T05:07:47.805Z,102907.41
2023-02-14T05:10:15.729Z,102901.88
2023-02-14T05:12:43.340Z,102900.84
2023-02-14T05:15:11.217Z,102902.47
2023-02-14T05:17:40.130Z,102903.09
2023-02-14T05:20:08.818Z,102904.75
2023-02-14T05:22:36.549Z,102904.47
2023-02-14T05:25:04.240Z,102903.47
2023-02-14T05:27:31.855Z,102901.53
2023-02-14T05:29:59.452Z,102899.63
2023-02-14T05:32:27.057Z,102893.47
2023-02-14T05:34:55.971Z,102892.66
2023-02-14T05:37:23.588Z,102884.69
2023-02-14T05:39:51.129Z,102891.78
2023-02-14T05:42:18.722Z,102890.94
2023-02-14T05:44:46.329Z,102885.72
2023-02-14T05:47:13.921Z,102890.94
2023-02-14T05:49:41.619Z,102898.81
2023-02-14T05:52:11.194Z,102895.41
2023-02-14T05:54:38.813Z,102897.31
2023-02-14T05:57:06.664Z,102897.31
2023-02-14T05:59:34.236Z,102883.50
2023-02-14T06:02:01.885Z,102888.88
2023-02-14T06:04:29.516Z,102891.59
2023-02-14T06:06:57.113Z,102890.75
2023-02-14T06:09:29.584Z,102890.97
2023-02-14T06:11:57.235Z,102894.50
2023-02-14T06:14:24.885Z,102899.06
2023-02-14T06:16:52.693Z,102886.84
2023-02-14T06:19:20.312Z,102892.19
2023-02-14T06:21:47.981Z,102889.69
2023-02-14T06:24:15.647Z,102886.44
2023-02-14T06:26:44.572Z,102888.19
2023-02-14T06:29:12.143Z,102886.56
2023-02-14T06:31:40.041Z,102891.91
2023-02-14T06:34:07.708Z,102892.81
2023-02-14T06:36:35.442Z,102898.88
2023-02-14T06:39:03.117Z,102897.94
2023-02-14T06:41:30.822Z,102899.66
2023-02-14T06:43:59.731Z,102894.09
2023-02-14T06:46:27.427Z,102905.41
2023-02-14T06:48:55.107Z,102909.53
2023-02-14T06:51:22.710Z,102909.22
2023-02-14T06:53:50.260Z,102900.47
2023-02-14T06:56:17.984Z,102905.69
2023-02-14T06:58:45.633Z,102899.53
2023-02-14T07:01:14.615Z,102905.59
2023-02-14T07:03:43.538Z,102905.47
2023-02-14T07:06:11.223Z,102896.63
2023-02-14T07:08:38.923Z,102899.44
2023-02-14T07:11:06.655Z,102903.66
2023-02-14T07:13:34.513Z,102902.75
2023-02-14T07:16:02.190Z,102908.00
2023-02-14T07:18:31.184Z,102896.50
2023-02-14T07:20:59.131Z,102903.47
2023-02-14T07:23:26.908Z,102911.22
2023-02-14T07:25:55.777Z,102899.81
2023-02-14T07:28:23.742Z,102896.28
2023-02-14T07:30:51.413Z,102899.81
2023-02-14T07:33:19.237Z,102898.91
2023-02-14T07:35:48.196Z,102896.28
2023-02-14T07:38:15.821Z,102905.97
2023-02-14T07:40:43.401Z,102895.50
2023-02-14T07:43:11.094Z,102903.38
2023-02-14T07:45:38.734Z,102897.09
2023-02-14T07:48:07.283Z,102898.00
2023-02-14T07:50:34.905Z,102889.31
2023-02-14T07:53:03.941Z,102892.88
2023-02-14T07:55:31.529Z,102899.13
2023-02-14T07:57:59.125Z,102895.00
2023-02-14T08:00:27.357Z,102884.72
2023-02-14T08:02:56.078Z,102889.38
2023-02-14T08:05:24.067Z,102890.47
2023-02-14T08:07:51.758Z,102888.19
2023-02-14T08:10:21.010Z,102887.78
2023-02-14T08:13:00.810Z,102893.44
2023-02-14T08:15:47.605Z,102889.41
2023-02-14T08:18:16.179Z,102883.75
2023-02-14T08:20:44.124Z,102883.25
2023-02-14T08:23:11.796Z,102888.00
2023-02-14T08:25:40.930Z,102889.31
2023-02-14T08:28:08.530Z,102891.44
2023-02-14T08:30:38.030Z,102889.91
2023-02-14T08:33:05.743Z,102890.31
2023-02-14T08:35:33.579Z,102879.31
2023-02-14T08:38:01.539Z,102885.75
2023-02-14T08:40:29.401Z,102882.63
2023-02-14T08:42:58.357Z,102876.88
2023-02-14T08:45:26.431Z,102878.88
2023-02-14T08:47:54.260Z,102883.78
2023-02-14T08:50:22.226Z,102884.19
2023-02-14T08:52:49.886Z,102881.03
2023-02-14T08:55:17.573Z,102884.06
2023-02-14T08:57:45.306Z,102884.22
2023-02-14T09:00:15.563Z,102885.53
2023-02-14T09:02:43.201Z,102880.47
2023-02-14T09:05:10.865Z,102880.75
2023-02-14T09:07:38.736Z,102878.38
2023-02-14T09:10:07.875Z,102881.22
2023-02-14T09:12:35.647Z,102877.06
2023-02-14T09:15:03.228Z,102874.91
2023-02-14T09:17:32.141Z,102882.25
2023-02-14T09:19:59.710Z,102873.84
2023-02-14T09:22:27.297Z,102878.56
2023-02-14T09:24:54.904Z,102877.22
2023-02-14T09:27:22.520Z,102879.31
2023-02-14T09:29:50.127Z,102876.22
2023-02-14T09:32:18.823Z,102884.28
2023-02-14T09:34:47.810Z,102880.22
2023-02-14T09:37:16.120Z,102873.59
2023-02-14T09:39:43.766Z,102882.84
2023-02-14T09:42:22.480Z,102875.41
2023-02-14T09:44:53.688Z,102870.50
2023-02-14T09:47:24.238Z,102872.56
2023-02-14T09:49:55.754Z,102869.47
2023-02-14T09:52:28.526Z,102869.66
2023-02-14T09:54:59.097Z,102871.91
2023-02-14T09:57:39.940Z,102879.25
2023-02-14T10:00:21.325Z,102879.59
2023-02-14T10:02:59.240Z,102890.66
2023-02-14T10:05:31.296Z,102887.63
2023-02-14T10:08:06.239Z,102886.34
2023-02-14T10:10:39.728Z,102893.75
2023-02-14T10:13:15.105Z,102892.38
2023-02-14T10:15:46.088Z,102892.69
2023-02-14T10:18:18.986Z,102887.59
2023-02-14T10:20:52.443Z,102890.50
2023-02-14T10:23:30.777Z,102890.81
2023-02-14T10:26:02.655Z,102884.06
2023-02-14T10:28:35.712Z,102878.31
2023-02-14T10:31:21.139Z,102887.53
2023-02-14T10:33:57.273Z,102883.56
2023-02-14T10:36:44.393Z,102879.59
2023-02-14T10:39:38.266Z,102866.97
2023-02-14T10:42:18.194Z,102878.03
2023-02-14T10:44:52.706Z,102866.06
2023-02-14T10:47:38.659Z,102869.00
2023-02-14T10:50:15.979Z,102867.41
2023-02-14T10:52:57.209Z,102869.41
2023-02-14T10:55:32.622Z,102867.22
2023-02-14T10:58:05.024Z,102863.28
2023-02-14T11:00:36.792Z,102867.03
2023-02-14T11:03:10.746Z,102862.16
2023-02-14T11:05:46.199Z,102859.00
2023-02-14T11:08:23.808Z,102855.13
2023-02-14T11:10:51.758Z,102865.19
2023-02-14T11:13:31.118Z,102867.94
2023-02-14T11:16:04.166Z,102862.16
2023-02-14T11:18:35.770Z,102850.16
2023-02-14T11:21:06.548Z,102851.38
2023-02-14T11:23:38.171Z,102842.31
2023-02-14T11:26:11.119Z,102841.13
2023-02-14T11:28:51.255Z,102838.03
2023-02-14T11:31:29.821Z,102831.41
2023-02-14T11:33:58.632Z,102838.03
2023-02-14T11:36:27.379Z,102821.22
2023-02-14T11:39:04.197Z,102822.34
2023-02-14T11:41:48.492Z,102818.06
2023-02-14T11:44:22.458Z,102823.16
2023-02-14T11:46:53.489Z,102804.78
2023-02-14T11:49:31.108Z,102807.88
2023-02-14T11:52:01.431Z,102810.06
2023-02-14T11:54:37.107Z,102799.88
2023-02-14T11:57:08.545Z,102802.81
2023-02-14T11:59:41.825Z,102794.28
2023-02-14T12:02:24.473Z,102792.25
2023-02-14T12:04:55.657Z,102786.69
2023-02-14T12:07:28.761Z,102789.06
2023-02-14T12:10:22.748Z,102782.50
2023-02-14T12:12:56.670Z,102783.53
2023-02-14T12:15:31.790Z,102784.78
2023-02-14T12:18:07.666Z,102779.97
2023-02-14T12:20:42.619Z,102774.94
2023-02-14T12:23:17.989Z,102769.88
2023-02-14T12:25:52.360Z,102768.44
2023-02-14T12:28:25.818Z,102776.16
2023-02-14T12:30:53.534Z,102770.34
2023-02-14T12:33:23.559Z,102783.06
2023-02-14T12:36:00.696Z,102778.78
2023-02-14T12:38:41.800Z,102777.34
2023-02-14T12:41:26.069Z,102768.97
2023-02-14T12:43:56.106Z,102773.53
2023-02-14T12:46:47.852Z,102769.94
2023-02-14T12:49:32.615Z,102775.09
2023-02-14T12:52:13.284Z,102767.00
2023-02-14T12:54:55.472Z,102769.47
2023-02-14T12:57:35.837Z,102765.88
2023-02-14T13:00:17.562Z,102765.19
2023-02-14T13:03:21.870Z,102756.13
2023-02-14T13:05:59.176Z,102765.78
2023-02-14T13:08:42.160Z,102753.53
2023-02-14T13:11:17.676Z,102754.50
2023-02-14T13:13:57.157Z,102749.50
2023-02-14T13:16:33.517Z,102746.28
2023-02-14T13:19:08.004Z,102740.41
2023-02-14T13:21:39.585Z,102737.25
2023-02-14T13:24:20.990Z,102731.34
2023-02-14T13:26:53.825Z,102727.34
2023-02-14T13:29:25.560Z,102719.63
2023-02-14T13:31:59.229Z,102721.50
2023-02-14T13:34:31.757Z,102721.81
2023-02-14T13:37:01.628Z,102721.75
2023-02-14T13:39:38.277Z,102713.88
2023-02-14T13:42:08.011Z,102699.75
2023-02-14T13:44:49.051Z,102704.34
2023-02-14T13:47:19.627Z,102700.94
2023-02-14T13:49:55.474Z,102701.13
2023-02-14T13:52:45.691Z,102702.19
2023-02-14T13:55:18.806Z,102706.75
2023-02-14T13:57:47.590Z,102709.31
2023-02-14T14:00:41.957Z,102708.34
2023-02-14T14:03:15.067Z,102708.31
2023-02-14T14:05:59.463Z,102693.09
2023-02-14T14:08:47.931Z,102701.03
2023-02-14T14:12:01.160Z,102705.34
2023-02-14T14:14:36.194Z,102693.59
2023-02-14T14:17:20.541Z,102695.25
2023-02-14T14:19:48.787Z,102698.63
2023-02-14T14:22:17.663Z,102700.31
2023-02-14T14:25:03.865Z,102692.25
2023-02-14T14:27:35.918Z,102688.56
2023-02-14T14:30:05.941Z,102688.47
2023-02-14T14:32:37.245Z,102690.94
2023-02-14T14:35:08.196Z,102682.78
2023-02-14T14:37:37.345Z,102680.94
2023-02-14T14:40:26.480Z,102679.75
2023-02-14T14:43:04.613Z,102673.38
2023-02-14T14:45:41.612Z,102674.22
2023-02-14T14:48:23.325Z,102669.69
2023-02-14T14:50:51.166Z,102667.88
2023-02-14T14:53:23.630Z,102665.91
2023-02-14T14:55:53.258Z,102663.94
2023-02-14T14:58:34.183Z,102666.59
2023-02-14T15:01:02.625Z,102662.91
2023-02-14T15:03:31.961Z,102661.97
2023-02-14T15:06:11.264Z,102666.44
2023-02-14T15:08:38.888Z,102658.44
2023-02-14T15:11:10.522Z,102653.81
2023-02-14T15:13:51.270Z,102648.25
2023-02-14T15:16:21.585Z,102643.66
2023-02-14T15:18:52.201Z,102648.75
2023-02-14T15:21:19.983Z,102650.38
2023-02-14T15:23:48.954Z,102653.00
2023-02-14T15:26:24.828Z,102641.16
2023-02-14T15:28:57.511Z,102645.28
2023-02-14T15:31:33.035Z,102643.22
2023-02-14T15:34:03.139Z,102636.81
2023-02-14T15:36:32.330Z,102637.44
2023-02-14T15:39:04.694Z,102634.50
2023-02-14T15:41:32.355Z,102630.75
2023-02-14T15:44:00.442Z,102624.22
2023-02-14T15:46:35.283Z,102626.50
2023-02-14T15:49:11.060Z,102635.00
2023-02-14T15:51:43.208Z,102632.88
2023-02-14T15:54:21.929Z,102632.59
2023-02-14T15:56:52.688Z,102624.28
2023-02-14T15:59:24.175Z,102633.72
2023-02-14T16:01:55.928Z,102627.19
2023-02-14T16:04:26.903Z,102628.59
2023-02-14T16:07:20.559Z,102621.09
2023-02-14T16:09:48.925Z,102617.94
2023-02-14T16:12:32.304Z,102616.59
2023-02-14T16:15:04.502Z,102607.28
2023-02-14T16:17:34.531Z,102614.91
2023-02-14T16:20:22.737Z,102612.75
2023-02-14T16:22:50.723Z,102605.28
2023-02-14T16:25:18.537Z,102609.31
2023-02-14T16:27:46.465Z,102606.25
2023-02-14T16:30:18.576Z,102602.34
2023-02-14T16:32:50.486Z,102607.22
2023-02-14T16:35:22.466Z,102604.22
2023-02-14T16:37:52.368Z,102616.00
2023-02-14T16:40:24.524Z,102609.44
2023-02-14T16:42:52.346Z,102604.66
2023-02-14T16:45:20.683Z,102606.00
2023-02-14T16:47:49.131Z,102608.19
2023-02-14T16:50:17.672Z,102603.50
2023-02-14T16:52:51.958Z,102608.41
2023-02-14T16:55:20.925Z,102607.22
2023-02-14T16:57:52.646Z,102604.16
2023-02-14T17:00:21.654Z,102602.91
2023-02-14T17:02:49.513Z,102600.75
2023-02-14T17:05:17.159Z,102602.16
2023-02-14T17:07:46.374Z,102598.28
2023-02-14T17:10:19.040Z,102603.19
2023-02-14T17:12:48.951Z,102604.56
2023-02-14T17:15:19.724Z,102617.41
2023-02-14T17:17:48.926Z,102603.00
2023-02-14T17:20:19.409Z,102602.63
2023-02-14T17:22:48.769Z,102603.19
2023-02-14T17:25:16.530Z,102606.44
2023-02-14T17:27:44.559Z,102613.97
2023-02-14T17:30:13.517Z,102617.16
2023-02-14T17:32:41.638Z,102611.53
2023-02-14T17:35:09.887Z,102605.13
2023-02-14T17:37:37.938Z,102603.06
2023-02-14T17:40:08.859Z,102605.34
2023-02-14T17:42:38.628Z,102612.13
2023-02-14T17:45:07.600Z,102605.66
2023-02-14T17:47:35.612Z,102611.53
2023-02-14T17:50:03.943Z,102607.69
2023-02-14T17:52:32.187Z,102609.09
2023-02-14T17:54:59.975Z,102610.50
2023-02-14T17:57:29.052Z,102608.41
2023-02-14T17:59:58.093Z,102601.91
2023-02-14T18:02:25.906Z,102606.84
2023-02-14T18:04:53.553Z,102594.28
2023-02-14T18:07:21.248Z,102596.59
2023-02-14T18:09:48.881Z,102584.75
2023-02-14T18:12:16.688Z,102587.97
2023-02-14T18:14:45.649Z,102591.19
2023-02-14T18:17:13.584Z,102583.84
2023-02-14T18:19:41.472Z,102577.41
2023-02-14T18:22:09.199Z,102576.16
2023-02-14T18:24:37.536Z,102576.72
2023-02-14T18:27:06.028Z,102576.41
2023-02-14T18:29:34.709Z,102574.34
2023-02-14T18:32:04.810Z,102566.22
2023-02-14T18:34:32.813Z,102563.25
2023-02-14T18:37:02.683Z,102562.91
2023-02-14T18:39:30.299Z,102563.50
2023-02-14T18:41:59.986Z,102557.81
2023-02-14T18:44:27.935Z,102552.31
2023-02-14T18:46:55.646Z,102555.50
2023-02-14T18:49:24.872Z,102557.88
2023-02-14T18:51:52.460Z,102555.91
2023-02-14T18:54:20.173Z,102552.13
2023-02-14T18:56:47.839Z,102556.22
2023-02-14T18:59:16.651Z,102547.19
2023-02-14T19:01:45.754Z,102539.94
2023-02-14T19:04:14.366Z,102544.91
2023-02-14T19:06:43.838Z,102541.97
2023-02-14T19:09:13.166Z,102534.59
2023-02-14T19:11:41.615Z,102537.00
2023-02-14T19:14:11.088Z,102527.03
2023-02-14T19:16:42.038Z,102527.69
2023-02-14T19:19:10.196Z,102523.09
2023-02-14T19:21:37.829Z,102522.00
2023-02-14T19:24:08.106Z,102519.22
2023-02-14T19:26:40.160Z,102519.81
2023-02-14T19:29:10.533Z,102525.72
2023-02-14T19:31:41.148Z,102521.19
2023-02-14T19:34:15.587Z,102516.59
2023-02-14T19:36:43.188Z,102508.44
2023-02-14T19:39:12.684Z,102512.63
2023-02-14T19:41:41.193Z,102516.78
2023-02-14T19:44:15.458Z,102515.69
2023-02-14T19:46:44.556Z,102517.25
2023-02-14T19:49:15.484Z,102524.84
2023-02-14T19:51:43.528Z,102529.88
2023-02-14T19:54:13.481Z,102530.63
2023-02-14T19:56:43.569Z,102535.69
2023-02-14T19:59:13.294Z,102530.16
2023-02-14T20:01:42.489Z,102531.00
2023-02-14T20:04:14.629Z,102535.31
2023-02-14T20:06:43.380Z,102532.53
2023-02-14T20:09:12.644Z,102531.44
2023-02-14T20:11:46.569Z,102534.66
2023-02-14T20:14:17.444Z,102528.25
2023-02-14T20:16:45.886Z,102526.25
2023-02-14T20:19:16.562Z,102530.31
2023-02-14T20:21:45.308Z,102525.69
2023-02-14T20:24:16.850Z,102521.88
2023-02-14T20:26:45.617Z,102520.69
2023-02-14T20:29:13.268Z,102512.56
2023-02-14T20:31:44.297Z,102508.75
2023-02-14T20:34:12.152Z,102505.84
2023-02-14T20:36:41.181Z,102498.59
2023-02-14T20:39:10.606Z,102494.00
2023-02-14T20:41:40.114Z,102477.97
2023-02-14T20:44:15.457Z,102489.97
2023-02-14T20:46:43.039Z,102488.88
2023-02-14T20:49:12.255Z,102484.28
2023-02-14T20:51:40.682Z,102484.09
2023-02-14T20:54:08.366Z,102482.38
2023-02-14T20:56:36.152Z,102477.13
2023-02-14T20:59:05.063Z,102477.13
2023-02-14T21:01:32.718Z,102476.22
2023-02-14T21:04:00.552Z,102472.72
2023-02-14T21:06:29.889Z,102480.47
2023-02-14T21:08:58.040Z,102484.72
2023-02-14T21:11:26.830Z,102485.50
2023-02-14T21:13:57.541Z,102490.66
2023-02-14T21:16:29.332Z,102487.94
2023-02-14T21:18:59.474Z,102476.47
2023-02-14T21:21:32.291Z,102482.41
2023-02-14T21:24:01.623Z,102472.66
2023-02-14T21:26:29.890Z,102475.97
2023-02-14T21:28:57.572Z,102470.66
2023-02-14T21:31:26.778Z,102469.63
2023-02-14T21:33:56.564Z,102465.94
2023-02-14T21:36:26.490Z,102463.09
2023-02-14T21:38:56.826Z,102469.06
2023-02-14T21:41:26.193Z,102460.13
2023-02-14T21:43:56.286Z,102454.69
2023-02-14T21:46:27.464Z,102451.06
2023-02-14T21:49:13.203Z,102444.84
2023-02-14T21:51:41.642Z,102442.81
2023-02-14T21:54:09.877Z,102437.38
2023-02-14T21:56:39.042Z,102438.31
2023-02-14T21:59:06.641Z,102431.06
2023-02-14T22:01:37.357Z,102417.97
2023-02-14T22:04:07.747Z,102419.50
2023-02-14T22:06:37.968Z,102411.44
2023-02-14T22:09:06.222Z,102419.13
2023-02-14T22:11:34.328Z,102420.59
2023-02-14T22:14:02.039Z,102417.91
2023-02-14T22:16:29.731Z,102414.28
2023-02-14T22:18:58.853Z,102418.50
2023-02-14T22:21:27.570Z,102412.19
2023-02-14T22:23:55.969Z,102415.59
2023-02-14T22:26:25.741Z,102409.34
2023-02-14T22:28:55.833Z,102416.22
2023-02-14T22:31:25.042Z,102427.47
2023-02-14T22:33:52.641Z,102422.97
2023-02-14T22:36:22.110Z,102427.28
2023-02-14T22:38:49.922Z,102414.13
2023-02-14T22:41:19.793Z,102419.34
2023-02-14T22:43:47.712Z,102416.72
2023-02-14T22:46:18.003Z,102412.19
2023-02-14T22:48:46.032Z,102413.81
2023-02-14T22:51:20.750Z,102416.31
2023-02-14T22:53:50.070Z,102419.72
2023-02-14T22:56:19.855Z,102413.50
2023-02-14T22:58:48.188Z,102412.59
2023-02-14T23:01:17.223Z,102415.13
2023-02-14T23:03:45.041Z,102408.78
2023-02-14T23:06:13.418Z,102411.41
2023-02-14T23:08:41.461Z,102411.31
2023-02-14T23:11:12.907Z,102403.25
2023-02-14T23:13:57.974Z,102404.97
2023-02-14T23:16:44.069Z,102394.41
2023-02-14T23:19:31.880Z,102404.56
2023-02-14T23:22:00.607Z,102400.16
2023-02-14T23:24:28.170Z,102387.88
2023-02-14T23:26:57.234Z,102386.75
2023-02-14T23:29:24.845Z,102382.31
2023-02-14T23:31:52.529Z,102387.47
2023-02-14T23:34:20.333Z,102383.84
2023-02-14T23:36:48.098Z,102382.75
2023-02-14T23:39:15.708Z,102381.53
2023-02-14T23:41:49.303Z,102382.25
2023-02-14T23:44:20.609Z,102382.16
2023-02-14T23:46:48.860Z,102381.03
2023-02-14T23:49:16.927Z,102379.22
2023-02-14T23:51:45.656Z,102374.72
2023-02-14T23:54:14.222Z,102378.84
2023-02-14T23:56:41.984Z,102376.00
2023-02-14T23:59:10.293Z,102375.91
